createdAt,value
2022-12-05T03:59:14.359Z,12.30
2022-12-05T04:00:14.467Z,14.40
2022-12-05T04:01:14.605Z,13.50
2022-12-05T04:02:14.698Z,14.20
2022-12-05T04:03:14.916Z,13.50
2022-12-05T04:04:14.967Z,13.20
2022-12-05T04:05:15.141Z,13.20
2022-12-05T04:06:15.257Z,12.30
2022-12-05T04:07:15.369Z,12.50
2022-12-05T04:08:15.538Z,12.50
2022-12-05T04:09:17.485Z,12.90
2022-12-05T04:10:15.773Z,13.40
2022-12-05T04:11:15.897Z,13.40
2022-12-05T04:12:15.997Z,12.70
2022-12-05T04:13:16.201Z,13.20
2022-12-05T04:14:16.322Z,11.80
2022-12-05T04:15:16.471Z,12.30
2022-12-05T04:16:16.695Z,12.70
2022-12-05T04:17:16.781Z,12.70
2022-12-05T04:18:17.874Z,11.50
2022-12-05T04:19:17.082Z,12.00
2022-12-05T04:20:17.223Z,12.30
2022-12-05T04:21:17.390Z,11.50
2022-12-05T04:22:17.541Z,12.60
2022-12-05T04:23:17.672Z,11.80
2022-12-05T04:24:17.837Z,12.50
2022-12-05T04:25:17.963Z,12.60
2022-12-05T04:26:18.125Z,11.90
2022-12-05T04:27:18.278Z,11.80
2022-12-05T04:28:21.757Z,11.20
2022-12-05T04:29:18.568Z,11.60
2022-12-05T04:30:18.743Z,12.80
2022-12-05T04:31:18.969Z,11.40
2022-12-05T04:32:18.949Z,12.40
2022-12-05T04:33:19.068Z,12.80
2022-12-05T04:34:19.151Z,12.40
2022-12-05T04:35:19.312Z,11.80
2022-12-05T04:36:19.430Z,11.80
2022-12-05T04:37:19.628Z,11.60
2022-12-05T04:38:19.699Z,12.20
2022-12-05T04:39:19.830Z,12.60
2022-12-05T04:40:19.968Z,11.50
2022-12-05T04:41:20.100Z,12.30
2022-12-05T04:42:20.242Z,11.90
2022-12-05T04:43:20.419Z,12.10
2022-12-05T04:44:20.499Z,11.90
2022-12-05T04:45:20.632Z,11.70
2022-12-05T04:46:20.835Z,12.00
2022-12-05T04:47:20.870Z,11.90
2022-12-05T04:48:21.044Z,11.50
2022-12-05T04:49:21.199Z,12.40
2022-12-05T04:50:21.328Z,12.20
2022-12-05T04:51:21.488Z,11.10
2022-12-05T04:52:21.631Z,11.30
2022-12-05T04:53:22.717Z,10.50
2022-12-05T04:54:21.882Z,11.40
2022-12-05T04:55:22.016Z,11.50
2022-12-05T04:56:22.156Z,11.50
2022-12-05T04:57:22.289Z,11.50
2022-12-05T04:58:22.444Z,10.80
2022-12-05T04:59:22.578Z,11.60
2022-12-05T05:00:22.706Z,11.90
2022-12-05T05:01:22.873Z,11.50
2022-12-05T05:02:23.066Z,11.90
2022-12-05T05:03:23.198Z,12.10
2022-12-05T05:04:23.275Z,11.30
2022-12-05T05:05:23.409Z,12.30
2022-12-05T05:06:23.557Z,11.50
2022-12-05T05:07:23.711Z,11.90
2022-12-05T05:08:23.897Z,11.20
2022-12-05T05:09:23.958Z,10.30
2022-12-05T05:10:24.097Z,11.50
2022-12-05T05:11:24.224Z,11.70
2022-12-05T05:12:24.358Z,13.00
2022-12-05T05:13:24.513Z,12.30
2022-12-05T05:14:24.636Z,10.80
2022-12-05T05:15:24.793Z,12.60
2022-12-05T05:16:24.975Z,11.60
2022-12-05T05:17:25.085Z,11.50
2022-12-05T05:18:25.243Z,11.70
2022-12-05T05:19:25.353Z,10.90
2022-12-05T05:20:25.476Z,12.10
2022-12-05T05:21:25.684Z,11.50
2022-12-05T05:22:25.761Z,11.90
2022-12-05T05:23:25.914Z,11.60
2022-12-05T05:24:26.013Z,12.10
2022-12-05T05:25:26.186Z,13.90
2022-12-05T05:26:26.270Z,10.70
2022-12-05T05:27:26.412Z,11.00
2022-12-05T05:28:26.572Z,10.60
2022-12-05T05:29:26.664Z,11.50
2022-12-05T05:30:26.798Z,11.20
2022-12-05T05:31:27.106Z,11.60
2022-12-05T05:32:27.110Z,11.00
2022-12-05T05:33:27.252Z,12.10
2022-12-05T05:34:27.411Z,11.20
2022-12-05T05:35:27.520Z,11.80
2022-12-05T05:36:27.680Z,10.50
2022-12-05T05:37:27.845Z,11.50
2022-12-05T05:38:28.031Z,10.90
2022-12-05T05:39:28.123Z,11.10
2022-12-05T05:40:28.241Z,10.90
2022-12-05T05:41:28.390Z,10.50
2022-12-05T05:42:28.523Z,10.90
2022-12-05T05:43:28.689Z,10.60
2022-12-05T05:44:28.768Z,10.70
2022-12-05T05:45:28.920Z,10.20
2022-12-05T05:46:29.128Z,10.40
2022-12-05T05:47:29.241Z,10.90
2022-12-05T05:48:29.378Z,10.90
2022-12-05T05:49:29.510Z,10.90
2022-12-05T05:50:29.679Z,11.00
2022-12-05T05:51:29.828Z,10.70
2022-12-05T05:52:29.964Z,11.30
2022-12-05T05:53:30.137Z,10.70
2022-12-05T05:54:30.229Z,10.10
2022-12-05T05:55:30.382Z,11.00
2022-12-05T05:56:30.527Z,10.40
2022-12-05T05:57:30.666Z,10.70
2022-12-05T05:58:30.809Z,10.40
2022-12-05T05:59:30.937Z,10.30
2022-12-05T06:00:31.075Z,9.30
2022-12-05T06:01:31.223Z,10.60
2022-12-05T06:02:31.401Z,10.80
2022-12-05T06:03:31.603Z,10.90
2022-12-05T06:04:31.638Z,10.50
2022-12-05T06:05:31.770Z,9.90
2022-12-05T06:06:31.937Z,10.20
2022-12-05T06:07:32.134Z,9.70
2022-12-05T06:08:32.235Z,10.40
2022-12-05T06:09:32.318Z,11.00
2022-12-05T06:10:32.465Z,10.50
2022-12-05T06:11:32.605Z,10.60
2022-12-05T06:12:32.747Z,11.10
2022-12-05T06:13:32.883Z,10.00
2022-12-05T06:14:33.015Z,10.40
2022-12-05T06:15:33.165Z,10.30
2022-12-05T06:16:33.405Z,10.40
2022-12-05T06:17:33.473Z,10.80
2022-12-05T06:18:33.594Z,10.80
2022-12-05T06:19:33.725Z,10.70
2022-12-05T06:20:33.887Z,10.60
2022-12-05T06:21:34.016Z,11.20
2022-12-05T06:22:34.173Z,9.70
2022-12-05T06:23:34.306Z,9.80
2022-12-05T06:24:34.446Z,11.20
2022-12-05T06:25:34.652Z,11.00
2022-12-05T06:26:34.724Z,10.60
2022-12-05T06:27:34.853Z,9.90
2022-12-05T06:28:35.013Z,11.50
2022-12-05T06:29:35.150Z,10.80
2022-12-05T06:30:35.300Z,10.10
2022-12-05T06:31:35.560Z,9.90
2022-12-05T06:32:35.640Z,10.00
2022-12-05T06:33:35.849Z,10.30
2022-12-05T06:34:35.881Z,10.40
2022-12-05T06:35:36.046Z,9.70
2022-12-05T06:36:36.095Z,9.80
2022-12-05T06:37:40.702Z,10.10
2022-12-05T06:39:01.892Z,10.00
2022-12-05T06:39:38.087Z,10.10
2022-12-05T06:40:39.876Z,9.80
2022-12-05T06:41:36.791Z,9.10
2022-12-05T06:42:36.926Z,9.40
2022-12-05T06:43:37.077Z,9.20
2022-12-05T06:44:37.160Z,9.90
2022-12-05T06:45:37.409Z,10.00
2022-12-05T06:46:37.513Z,9.70
2022-12-05T06:47:37.630Z,10.10
2022-12-05T06:48:37.746Z,10.30
2022-12-05T06:49:38.406Z,9.90
2022-12-05T06:50:39.054Z,10.50
2022-12-05T06:51:39.170Z,9.90
2022-12-05T06:52:38.309Z,9.60
2022-12-05T06:53:38.552Z,9.40
2022-12-05T06:54:38.612Z,9.80
2022-12-05T06:55:38.981Z,10.00
2022-12-05T06:56:38.918Z,9.40
2022-12-05T06:57:38.920Z,9.20
2022-12-05T06:58:40.185Z,9.40
2022-12-05T06:59:39.369Z,9.50
2022-12-05T07:00:39.499Z,9.40
2022-12-05T07:01:40.207Z,9.00
2022-12-05T07:02:40.231Z,9.80
2022-12-05T07:03:39.698Z,10.60
2022-12-05T07:04:41.271Z,9.60
2022-12-05T07:05:41.888Z,11.10
2022-12-05T07:06:40.799Z,9.90
2022-12-05T07:07:40.871Z,9.90
2022-12-05T07:08:40.396Z,11.10
2022-12-05T07:09:40.477Z,9.80
2022-12-05T07:10:40.562Z,9.10
2022-12-05T07:11:40.797Z,9.50
2022-12-05T07:12:41.908Z,10.30
2022-12-05T07:13:42.107Z,10.60
2022-12-05T07:14:50.082Z,10.00
2022-12-05T07:15:43.268Z,10.30
2022-12-05T07:16:41.435Z,10.60
2022-12-05T07:17:41.586Z,10.00
2022-12-05T07:18:42.658Z,10.20
2022-12-05T07:19:42.796Z,11.40
2022-12-05T07:21:10.782Z,10.40
2022-12-05T07:21:43.080Z,10.00
2022-12-05T07:22:42.193Z,10.50
2022-12-05T07:23:42.354Z,10.30
2022-12-05T07:24:43.382Z,10.40
2022-12-05T07:25:42.754Z,10.20
2022-12-05T07:26:43.775Z,10.00
2022-12-05T07:27:42.944Z,11.80
2022-12-05T07:28:43.063Z,9.60
2022-12-05T07:29:43.116Z,11.40
2022-12-05T07:30:43.278Z,10.70
2022-12-05T07:31:43.444Z,10.40
2022-12-05T07:32:43.456Z,10.90
2022-12-05T07:33:43.613Z,10.40
2022-12-05T07:34:43.773Z,10.50
2022-12-05T07:35:43.850Z,10.90
2022-12-05T07:36:45.000Z,10.60
2022-12-05T07:37:44.089Z,9.90
2022-12-05T07:38:45.193Z,12.20
2022-12-05T07:39:44.454Z,9.80
2022-12-05T07:40:44.493Z,9.60
2022-12-05T07:41:44.651Z,10.40
2022-12-05T07:42:44.662Z,11.60
2022-12-05T07:43:44.932Z,9.60
2022-12-05T07:44:44.976Z,10.20
2022-12-05T07:45:45.286Z,11.70
2022-12-05T07:46:45.335Z,10.10
2022-12-05T07:47:45.538Z,10.80
2022-12-05T07:48:45.652Z,10.30
2022-12-05T07:49:45.795Z,10.50
2022-12-05T07:50:46.983Z,9.90
2022-12-05T07:51:47.435Z,10.20
2022-12-05T07:52:47.000Z,10.20
2022-12-05T07:53:47.172Z,10.50
2022-12-05T07:54:46.332Z,10.20
2022-12-05T07:55:46.423Z,10.60
2022-12-05T07:56:48.138Z,10.00
2022-12-05T07:57:46.669Z,10.30
2022-12-05T07:58:46.851Z,10.40
2022-12-05T07:59:47.053Z,10.60
2022-12-05T08:00:47.148Z,10.40
2022-12-05T08:01:47.304Z,11.80
2022-12-05T08:02:47.570Z,10.60
2022-12-05T08:03:47.572Z,10.50
2022-12-05T08:04:47.990Z,10.10
2022-12-05T08:05:47.998Z,11.10
2022-12-05T08:06:48.208Z,10.10
2022-12-05T08:07:48.184Z,10.20
2022-12-05T08:08:48.259Z,10.90
2022-12-05T08:09:48.665Z,9.70
2022-12-05T08:10:49.038Z,9.80
2022-12-05T08:11:52.594Z,12.30
2022-12-05T08:12:56.647Z,10.40
2022-12-05T08:13:49.551Z,11.00
2022-12-05T08:14:49.044Z,10.80
2022-12-05T08:15:50.127Z,10.30
2022-12-05T08:16:49.368Z,11.00
2022-12-05T08:17:50.346Z,11.40
2022-12-05T08:18:49.456Z,10.00
2022-12-05T08:19:49.766Z,9.90
2022-12-05T08:20:49.770Z,10.90
2022-12-05T08:21:49.865Z,12.10
2022-12-05T08:22:49.983Z,10.10
2022-12-05T08:23:50.109Z,11.50
2022-12-05T08:24:56.011Z,10.80
2022-12-05T08:25:51.306Z,10.40
2022-12-05T08:26:51.395Z,10.00
2022-12-05T08:27:50.524Z,11.80
2022-12-05T08:28:50.694Z,10.10
2022-12-05T08:29:51.527Z,8.90
2022-12-05T08:30:51.918Z,9.70
2022-12-05T08:31:55.936Z,10.70
2022-12-05T08:32:58.292Z,10.60
2022-12-05T08:33:57.125Z,10.20
2022-12-05T08:34:53.303Z,9.90
2022-12-05T08:35:53.998Z,9.60
2022-12-05T08:36:56.526Z,10.50
2022-12-05T08:37:54.998Z,9.90
2022-12-05T08:39:00.631Z,9.30
2022-12-05T08:39:52.874Z,10.40
2022-12-05T08:40:58.983Z,9.40
2022-12-05T08:41:57.627Z,9.50
2022-12-05T08:42:56.086Z,9.70
2022-12-05T08:43:55.774Z,9.30
2022-12-05T08:44:58.372Z,9.30
2022-12-05T08:45:55.273Z,8.90
2022-12-05T08:46:53.097Z,9.40
2022-12-05T08:47:53.261Z,10.00
2022-12-05T08:48:53.382Z,9.70
2022-12-05T08:49:53.701Z,9.20
2022-12-05T08:50:53.563Z,9.50
2022-12-05T08:51:53.802Z,8.60
2022-12-05T08:52:55.087Z,9.00
2022-12-05T08:53:54.023Z,9.90
2022-12-05T08:54:55.442Z,10.40
2022-12-05T08:55:55.248Z,8.90
2022-12-05T08:56:54.591Z,8.90
2022-12-05T08:57:56.554Z,9.00
2022-12-05T08:59:01.168Z,9.20
2022-12-05T08:59:56.625Z,9.20
2022-12-05T09:01:01.763Z,8.50
2022-12-05T09:01:55.093Z,8.30
2022-12-05T09:02:55.966Z,9.50
2022-12-05T09:03:55.341Z,8.80
2022-12-05T09:04:57.383Z,8.90
2022-12-05T09:05:56.640Z,8.20
2022-12-05T09:06:55.769Z,8.10
2022-12-05T09:07:55.915Z,8.40
2022-12-05T09:08:56.940Z,7.40
2022-12-05T09:09:56.132Z,8.50
2022-12-05T09:10:56.245Z,7.50
2022-12-05T09:11:56.457Z,7.50
2022-12-05T09:12:56.483Z,8.40
2022-12-05T09:13:56.587Z,8.00
2022-12-05T09:14:56.929Z,8.50
2022-12-05T09:15:56.920Z,8.00
2022-12-05T09:16:57.837Z,8.10
2022-12-05T09:17:57.968Z,8.10
2022-12-05T09:18:58.477Z,7.90
2022-12-05T09:19:59.097Z,8.00
2022-12-05T09:20:57.386Z,7.50
2022-12-05T09:21:57.616Z,7.30
2022-12-05T09:22:57.696Z,7.60
2022-12-05T09:23:57.757Z,7.60
2022-12-05T09:24:58.203Z,7.60
2022-12-05T09:25:58.060Z,7.30
2022-12-05T09:26:58.201Z,6.80
2022-12-05T09:28:05.021Z,8.40
2022-12-05T09:28:58.676Z,7.30
2022-12-05T09:29:59.535Z,8.10
2022-12-05T09:30:58.801Z,7.30
2022-12-05T09:31:58.895Z,8.10
2022-12-05T09:32:58.986Z,7.60
2022-12-05T09:33:59.210Z,7.50
2022-12-05T09:34:59.784Z,7.40
2022-12-05T09:35:59.564Z,7.50
2022-12-05T09:37:30.458Z,7.90
2022-12-05T09:38:00.823Z,7.00
2022-12-05T09:38:59.959Z,7.50
2022-12-05T09:39:59.926Z,7.00
2022-12-05T09:41:01.076Z,7.10
2022-12-05T09:42:00.244Z,8.00
2022-12-05T09:43:00.334Z,7.40
2022-12-05T09:44:00.570Z,7.30
2022-12-05T09:45:00.970Z,6.70
2022-12-05T09:46:01.852Z,7.80
2022-12-05T09:47:00.864Z,7.00
2022-12-05T09:48:01.026Z,6.70
2022-12-05T09:49:01.783Z,7.20
2022-12-05T09:50:01.362Z,7.20
2022-12-05T09:51:01.342Z,7.10
2022-12-05T09:52:01.474Z,6.70
2022-12-05T09:53:01.624Z,8.10
2022-12-05T09:54:01.712Z,7.00
2022-12-05T09:55:01.945Z,7.00
2022-12-05T09:56:02.053Z,7.90
2022-12-05T09:57:02.255Z,7.30
2022-12-05T09:58:03.352Z,8.50
2022-12-05T09:59:03.086Z,7.20
2022-12-05T10:00:02.640Z,7.10
2022-12-05T10:01:02.642Z,6.90
2022-12-05T10:02:03.835Z,7.30
2022-12-05T10:13:24.884Z,7.60
2022-12-05T10:14:24.933Z,8.20
2022-12-05T10:15:29.260Z,7.40
2022-12-05T10:16:25.305Z,7.70
2022-12-05T10:17:25.328Z,7.30
2022-12-05T10:18:26.277Z,6.60
2022-12-05T10:19:25.456Z,6.10
2022-12-05T10:20:40.372Z,7.00
2022-12-05T10:21:27.848Z,7.20
2022-12-05T10:22:26.424Z,7.20
2022-12-05T10:23:55.931Z,7.50
2022-12-05T10:24:29.600Z,6.70
2022-12-05T10:25:27.629Z,6.40
2022-12-05T10:26:27.606Z,6.80
2022-12-05T10:27:26.718Z,7.10
2022-12-05T10:28:26.775Z,6.90
2022-12-05T10:29:26.947Z,7.50
2022-12-05T10:30:30.834Z,7.20
2022-12-05T10:31:27.225Z,7.20
2022-12-05T10:32:27.827Z,6.80
2022-12-05T10:33:28.644Z,7.10
2022-12-05T10:34:39.351Z,6.80
2022-12-05T10:35:28.716Z,6.30
2022-12-05T10:36:28.864Z,6.90
2022-12-05T10:37:32.725Z,7.00
2022-12-05T10:38:27.977Z,6.30
2022-12-05T10:39:29.954Z,6.50
2022-12-05T10:40:28.409Z,6.90
2022-12-05T10:41:33.054Z,6.20
2022-12-05T10:42:28.425Z,7.30
2022-12-05T10:43:28.814Z,7.30
2022-12-05T10:44:29.475Z,7.50
2022-12-05T10:45:30.596Z,6.80
2022-12-05T10:46:33.193Z,6.40
2022-12-05T10:47:30.802Z,6.10
2022-12-05T10:48:29.310Z,6.60
2022-12-05T10:49:30.613Z,5.90
2022-12-05T10:50:30.807Z,5.80
2022-12-05T10:51:37.345Z,6.40
2022-12-05T10:52:31.150Z,6.80
2022-12-05T10:53:29.910Z,5.70
2022-12-05T10:54:30.901Z,6.80
2022-12-05T10:55:30.273Z,6.10
2022-12-05T10:56:31.121Z,6.90
2022-12-05T10:57:30.374Z,6.20
2022-12-05T10:58:30.531Z,6.20
2022-12-05T10:59:31.382Z,7.40
2022-12-05T11:00:31.540Z,7.20
2022-12-05T11:01:31.222Z,7.30
2022-12-05T11:02:34.021Z,6.00
2022-12-05T11:03:31.312Z,6.60
2022-12-05T11:04:31.245Z,6.50
2022-12-05T11:05:32.039Z,6.90
2022-12-05T11:06:31.549Z,6.40
2022-12-05T11:07:34.451Z,6.60
2022-12-05T11:09:02.680Z,6.60
2022-12-05T11:09:33.840Z,6.20
2022-12-05T11:10:32.279Z,6.40
2022-12-05T11:11:32.252Z,6.20
2022-12-05T11:12:32.478Z,6.40
2022-12-05T11:13:33.222Z,7.40
2022-12-05T11:14:32.733Z,6.30
2022-12-05T11:15:33.740Z,6.10
2022-12-05T11:16:34.978Z,6.40
2022-12-05T11:17:33.293Z,6.90
2022-12-05T11:18:33.209Z,6.20
2022-12-05T11:19:34.935Z,7.40
2022-12-05T11:20:33.459Z,7.20
2022-12-05T11:21:33.609Z,7.20
2022-12-05T11:22:33.808Z,6.80
2022-12-05T11:23:33.827Z,6.90
2022-12-05T11:24:35.853Z,6.70
2022-12-05T11:25:34.147Z,7.00
2022-12-05T11:26:34.432Z,5.40
2022-12-05T11:27:34.373Z,5.90
2022-12-05T11:28:35.543Z,6.40
2022-12-05T11:29:34.700Z,6.00
2022-12-05T11:30:36.627Z,6.40
2022-12-05T11:31:35.939Z,7.00
2022-12-05T11:32:35.845Z,7.00
2022-12-05T11:33:36.051Z,6.90
2022-12-05T11:34:35.902Z,6.80
2022-12-05T11:35:35.471Z,5.60
2022-12-05T11:36:35.661Z,7.20
2022-12-05T11:37:35.666Z,5.50
2022-12-05T11:38:35.714Z,5.80
2022-12-05T11:39:35.945Z,7.00
2022-12-05T11:40:38.783Z,5.90
2022-12-05T11:41:36.630Z,5.90
2022-12-05T11:42:36.279Z,6.30
2022-12-05T11:43:36.691Z,6.70
2022-12-05T11:44:38.868Z,6.20
2022-12-05T11:45:36.756Z,6.40
2022-12-05T11:46:37.665Z,6.00
2022-12-05T11:47:38.051Z,6.20
2022-12-05T11:48:37.320Z,6.10
2022-12-05T11:49:39.509Z,6.30
2022-12-05T11:50:39.673Z,6.20
2022-12-05T11:51:43.494Z,6.40
2022-12-05T11:52:45.970Z,5.80
2022-12-05T11:53:39.777Z,6.20
2022-12-05T11:55:45.289Z,6.00
2022-12-05T11:56:39.327Z,5.60
2022-12-05T11:57:39.114Z,5.60
2022-12-05T11:58:43.947Z,7.40
2022-12-05T11:59:40.352Z,5.40
2022-12-05T12:00:38.990Z,5.80
2022-12-05T12:01:42.669Z,7.40
2022-12-05T12:02:41.658Z,5.80
2022-12-05T12:03:39.429Z,7.10
2022-12-05T12:04:39.138Z,6.70
2022-12-05T12:05:39.425Z,6.40
2022-12-05T12:06:39.522Z,6.40
2022-12-05T12:07:40.038Z,5.80
2022-12-05T12:08:39.833Z,6.10
2022-12-05T12:09:40.162Z,6.30
2022-12-05T12:10:41.396Z,5.20
2022-12-05T12:11:40.857Z,5.80
2022-12-05T12:12:46.347Z,5.40
2022-12-05T12:13:43.575Z,5.60
2022-12-05T12:14:40.833Z,5.20
2022-12-05T12:15:45.857Z,5.30
2022-12-05T12:16:44.227Z,5.40
2022-12-05T12:17:41.076Z,6.60
2022-12-05T12:18:45.562Z,6.10
2022-12-05T12:19:41.880Z,5.60
2022-12-05T12:20:42.046Z,5.70
2022-12-05T12:21:41.816Z,5.60
2022-12-05T12:22:42.350Z,7.60
2022-12-05T12:23:42.620Z,5.30
2022-12-05T12:24:42.669Z,5.70
2022-12-05T12:25:42.632Z,5.50
2022-12-05T12:26:42.126Z,6.20
2022-12-05T12:27:42.238Z,5.10
2022-12-05T12:28:42.251Z,6.60
2022-12-05T12:29:43.300Z,6.50
2022-12-05T12:30:42.437Z,5.10
2022-12-05T12:31:42.602Z,6.80
2022-12-05T12:32:42.821Z,7.10
2022-12-05T12:33:42.878Z,6.20
2022-12-05T12:34:42.968Z,6.50
2022-12-05T12:35:43.139Z,6.50
2022-12-05T12:36:43.273Z,5.30
2022-12-05T12:37:44.247Z,6.00
2022-12-05T12:38:46.931Z,6.00
2022-12-05T12:39:44.719Z,5.90
2022-12-05T12:40:43.708Z,5.70
2022-12-05T12:41:43.867Z,6.10
2022-12-05T12:42:44.049Z,6.10
2022-12-05T12:43:59.373Z,6.30
2022-12-05T12:44:45.235Z,6.50
2022-12-05T12:45:44.386Z,6.60
2022-12-05T12:46:44.527Z,5.70
2022-12-05T12:47:44.677Z,5.50
2022-12-05T12:48:44.839Z,5.90
2022-12-05T12:49:44.985Z,6.10
2022-12-05T12:50:45.147Z,6.10
2022-12-05T12:51:45.305Z,5.90
2022-12-05T12:52:45.496Z,5.80
2022-12-05T12:53:45.625Z,6.10
2022-12-05T12:55:03.537Z,5.00
2022-12-05T12:55:46.927Z,4.70
2022-12-05T12:56:46.115Z,4.80
2022-12-05T12:57:46.216Z,5.50
2022-12-05T12:58:46.387Z,4.80
2022-12-05T12:59:46.484Z,5.90
2022-12-05T13:00:46.639Z,5.20
2022-12-05T13:01:46.823Z,5.50
2022-12-05T13:02:47.924Z,5.00
2022-12-05T13:03:51.360Z,5.40
2022-12-05T13:04:47.073Z,4.60
2022-12-05T13:05:47.207Z,5.10
2022-12-05T13:06:47.293Z,5.00
2022-12-05T13:07:47.546Z,5.40
2022-12-05T13:08:47.612Z,4.80
2022-12-05T13:09:51.645Z,4.90
2022-12-05T13:10:47.872Z,5.10
2022-12-05T13:11:47.971Z,4.90
2022-12-05T13:12:48.145Z,5.10
2022-12-05T13:13:48.301Z,5.00
2022-12-05T13:14:48.445Z,4.80
2022-12-05T13:15:48.642Z,6.20
2022-12-05T13:16:48.741Z,5.10
2022-12-05T13:17:48.881Z,4.80
2022-12-05T13:18:48.983Z,5.40
2022-12-05T13:19:49.131Z,5.70
2022-12-05T13:20:49.280Z,4.70
2022-12-05T13:21:49.448Z,5.40
2022-12-05T13:22:49.613Z,4.60
2022-12-05T13:23:49.711Z,5.00
2022-12-05T13:24:49.829Z,5.50
2022-12-05T13:25:50.875Z,4.90
2022-12-05T13:26:50.089Z,5.20
2022-12-05T13:27:50.195Z,5.30
2022-12-05T13:28:50.363Z,4.90
2022-12-05T13:29:50.463Z,5.30
2022-12-05T13:30:50.630Z,4.80
2022-12-05T13:31:50.772Z,4.80
2022-12-05T13:32:50.880Z,4.50
2022-12-05T13:33:50.982Z,5.10
2022-12-05T13:34:51.169Z,5.00
2022-12-05T13:35:51.293Z,4.70
2022-12-05T13:36:51.445Z,5.50
2022-12-05T13:37:51.538Z,5.50
2022-12-05T13:38:51.660Z,5.50
2022-12-05T13:39:51.766Z,4.50
2022-12-05T13:40:51.868Z,4.70
2022-12-05T13:41:51.957Z,4.80
2022-12-05T13:42:52.127Z,5.20
2022-12-05T13:44:05.441Z,5.70
2022-12-05T13:44:54.303Z,4.50
2022-12-05T13:45:53.443Z,4.20
2022-12-05T13:46:52.608Z,4.10
2022-12-05T13:47:52.709Z,4.50
2022-12-05T13:48:52.909Z,4.70
2022-12-05T13:49:53.047Z,4.90
2022-12-05T13:50:53.137Z,4.50
2022-12-05T13:51:53.336Z,4.90
2022-12-05T13:52:53.407Z,4.60
2022-12-05T13:53:53.505Z,4.60
2022-12-05T13:54:53.668Z,4.60
2022-12-05T13:55:53.814Z,4.50
2022-12-05T13:56:53.982Z,4.30
2022-12-05T13:57:54.158Z,4.60
2022-12-05T13:58:55.225Z,5.30
2022-12-05T13:59:54.417Z,4.20
2022-12-05T14:00:54.550Z,4.80
2022-12-05T14:01:56.450Z,5.20
2022-12-05T14:02:54.837Z,3.80
2022-12-05T14:03:54.875Z,4.60
2022-12-05T14:04:54.986Z,4.20
2022-12-05T14:05:55.097Z,4.50
2022-12-05T14:06:55.193Z,4.60
2022-12-05T14:07:59.654Z,4.80
2022-12-05T14:08:56.467Z,4.40
2022-12-05T14:09:55.862Z,4.40
2022-12-05T14:10:55.642Z,4.10
2022-12-05T14:11:55.796Z,3.60
2022-12-05T14:12:55.945Z,4.30
2022-12-05T14:14:00.750Z,4.60
2022-12-05T14:14:57.301Z,4.50
2022-12-05T14:15:57.840Z,4.50
2022-12-05T14:16:56.523Z,4.60
2022-12-05T14:17:56.577Z,4.30
2022-12-05T14:18:56.762Z,3.90
2022-12-05T14:19:58.015Z,4.50
2022-12-05T14:20:57.031Z,4.20
2022-12-05T14:21:57.182Z,4.30
2022-12-05T14:22:57.273Z,4.70
2022-12-05T14:23:57.381Z,5.20
2022-12-05T14:24:57.504Z,4.40
2022-12-05T14:25:59.686Z,4.90
2022-12-05T14:26:57.780Z,4.10
2022-12-05T14:27:57.851Z,3.90
2022-12-05T14:28:58.951Z,4.10
2022-12-05T14:29:58.429Z,3.70
2022-12-05T14:30:58.438Z,4.30
2022-12-05T14:32:03.945Z,4.40
2022-12-05T14:32:59.565Z,4.40
2022-12-05T14:33:59.638Z,4.30
2022-12-05T14:34:58.821Z,5.10
2022-12-05T14:35:58.985Z,6.10
2022-12-05T14:36:59.136Z,4.70
2022-12-05T14:37:59.275Z,5.30
2022-12-05T14:38:59.441Z,8.20
2022-12-05T14:39:59.792Z,7.50
2022-12-05T14:41:06.404Z,6.90
2022-12-05T14:42:00.797Z,6.80
2022-12-05T14:42:59.990Z,7.00
2022-12-05T14:44:06.694Z,5.90
2022-12-05T14:45:01.508Z,6.10
2022-12-05T14:46:00.478Z,7.30
2022-12-05T14:47:00.553Z,6.60
2022-12-05T14:48:00.741Z,7.50
2022-12-05T14:49:00.839Z,7.10
2022-12-05T14:50:01.328Z,8.30
2022-12-05T14:51:01.052Z,7.10
2022-12-05T14:52:01.196Z,6.10
2022-12-05T14:53:01.369Z,7.00
2022-12-05T14:54:01.478Z,7.60
2022-12-05T14:55:01.584Z,9.00
2022-12-05T14:56:01.808Z,9.00
2022-12-05T14:57:01.828Z,9.10
2022-12-05T14:58:01.927Z,7.90
2022-12-05T14:59:02.016Z,6.20
2022-12-05T15:00:02.467Z,7.70
2022-12-05T15:01:02.395Z,7.00
2022-12-05T15:02:02.539Z,6.20
2022-12-05T15:03:02.627Z,8.20
2022-12-05T15:04:02.883Z,8.40
2022-12-05T15:05:02.936Z,6.80
2022-12-05T15:06:03.969Z,7.80
2022-12-05T15:07:03.259Z,7.10
2022-12-05T15:08:03.454Z,5.90
2022-12-05T15:09:28.679Z,6.40
2022-12-05T15:10:04.639Z,5.90
2022-12-05T15:11:03.786Z,5.70
2022-12-05T15:12:09.355Z,7.70
2022-12-05T15:13:05.014Z,9.00
2022-12-05T15:14:04.170Z,6.20
2022-12-05T15:15:04.279Z,5.70
2022-12-05T15:16:04.460Z,6.60
2022-12-05T15:17:04.523Z,7.50
2022-12-05T15:18:04.696Z,6.60
2022-12-05T15:19:04.802Z,7.80
2022-12-05T15:20:04.893Z,7.90
2022-12-05T15:21:05.054Z,7.60
2022-12-05T15:22:05.226Z,7.90
2022-12-05T15:23:05.332Z,6.80
2022-12-05T15:24:05.442Z,5.80
2022-12-05T15:25:05.542Z,7.50
2022-12-05T15:26:30.664Z,6.70
2022-12-05T15:27:06.862Z,5.10
2022-12-05T15:28:06.053Z,6.30
2022-12-05T15:29:06.100Z,5.60
2022-12-05T15:30:06.271Z,7.10
2022-12-05T15:31:06.394Z,6.10
2022-12-05T15:32:06.539Z,5.50
2022-12-05T15:33:06.629Z,7.20
2022-12-05T15:34:06.797Z,5.90
2022-12-05T15:35:06.944Z,6.50
2022-12-05T15:36:07.101Z,5.50
2022-12-05T15:37:07.240Z,6.90
2022-12-05T15:38:07.413Z,6.20
2022-12-05T15:39:07.522Z,6.00
2022-12-05T15:40:07.672Z,6.60
2022-12-05T15:41:07.800Z,4.90
2022-12-05T15:42:07.949Z,6.30
2022-12-05T15:43:08.102Z,5.60
2022-12-05T15:44:08.240Z,6.30
2022-12-05T15:45:08.372Z,6.50
2022-12-05T15:46:08.552Z,5.80
2022-12-05T15:47:08.638Z,7.30
2022-12-05T15:48:08.784Z,6.30
2022-12-05T15:49:08.920Z,5.70
2022-12-05T15:50:09.048Z,6.10
2022-12-05T15:51:09.208Z,5.80
2022-12-05T15:52:09.328Z,5.50
2022-12-05T15:53:09.460Z,5.40
2022-12-05T15:54:09.598Z,5.60
2022-12-05T15:55:09.756Z,6.90
2022-12-05T15:56:09.888Z,6.00
2022-12-05T15:57:10.018Z,5.50
2022-12-05T15:58:13.286Z,6.90
2022-12-05T15:59:10.290Z,7.10
2022-12-05T16:00:10.408Z,6.40
2022-12-05T16:01:10.576Z,5.90
2022-12-05T16:12:45.177Z,7.50
2022-12-05T16:13:45.276Z,5.80
2022-12-05T16:15:01.463Z,6.40
2022-12-05T16:15:52.315Z,6.30
2022-12-05T16:16:46.750Z,6.30
2022-12-05T16:17:45.820Z,6.00
2022-12-05T16:18:45.975Z,6.20
2022-12-05T16:19:46.125Z,7.60
2022-12-05T16:20:46.295Z,7.20
2022-12-05T16:21:46.366Z,5.90
2022-12-05T16:22:46.546Z,6.90
2022-12-05T16:23:46.692Z,6.50
2022-12-05T16:24:47.764Z,6.90
2022-12-05T16:25:46.951Z,6.20
2022-12-05T16:26:47.105Z,6.50
2022-12-05T16:27:47.237Z,5.60
2022-12-05T16:28:47.395Z,5.70
2022-12-05T16:29:47.534Z,5.70
2022-12-05T16:30:47.775Z,5.90
2022-12-05T16:31:47.856Z,6.00
2022-12-05T16:32:47.958Z,6.10
2022-12-05T16:33:48.138Z,6.50
2022-12-05T16:34:48.284Z,5.10
2022-12-05T16:35:48.405Z,5.50
2022-12-05T16:36:48.593Z,5.30
2022-12-05T16:37:48.669Z,6.00
2022-12-05T16:38:48.823Z,5.30
2022-12-05T16:39:48.974Z,5.40
2022-12-05T16:40:50.089Z,6.90
2022-12-05T16:41:49.262Z,5.50
2022-12-05T16:42:49.399Z,4.70
2022-12-05T16:43:49.473Z,5.20
2022-12-05T16:44:49.643Z,5.20
2022-12-05T16:45:49.762Z,5.30
2022-12-05T16:46:50.012Z,5.20
2022-12-05T16:47:50.064Z,5.10
2022-12-05T16:48:50.241Z,5.50
2022-12-05T16:49:50.304Z,4.90
2022-12-05T16:50:50.469Z,4.90
2022-12-05T16:51:50.594Z,5.50
2022-12-05T16:52:50.743Z,5.30
2022-12-05T16:53:50.894Z,4.80
2022-12-05T16:54:51.090Z,4.30
2022-12-05T16:55:51.160Z,5.10
2022-12-05T16:56:51.291Z,6.40
2022-12-05T16:57:51.420Z,4.60
2022-12-05T16:58:51.570Z,5.20
2022-12-05T16:59:51.711Z,5.10
2022-12-05T17:00:51.876Z,5.40
2022-12-05T17:01:52.049Z,5.50
2022-12-05T17:02:55.250Z,5.60
2022-12-05T17:03:52.363Z,5.50
2022-12-05T17:04:52.419Z,5.50
2022-12-05T17:05:52.542Z,4.60
2022-12-05T17:06:52.690Z,5.10
2022-12-05T17:07:52.871Z,5.10
2022-12-05T17:08:52.948Z,4.90
2022-12-05T17:09:53.119Z,4.50
2022-12-05T17:10:53.209Z,4.60
2022-12-05T17:11:53.329Z,4.80
2022-12-05T17:12:53.504Z,4.60
2022-12-05T17:13:53.607Z,4.40
2022-12-05T17:14:53.729Z,4.60
2022-12-05T17:15:53.929Z,4.50
2022-12-05T17:16:54.025Z,4.40
2022-12-05T17:17:54.169Z,5.40
2022-12-05T17:18:54.470Z,3.90
2022-12-05T17:19:54.440Z,4.40
2022-12-05T17:20:54.576Z,4.90
2022-12-05T17:21:54.728Z,4.10
2022-12-05T17:22:54.878Z,4.20
2022-12-05T17:23:55.009Z,4.80
2022-12-05T17:24:55.137Z,4.90
2022-12-05T17:25:55.278Z,4.70
2022-12-05T17:26:55.457Z,4.20
2022-12-05T17:27:55.590Z,4.30
2022-12-05T17:28:55.736Z,4.50
2022-12-05T17:29:56.365Z,4.70
2022-12-05T17:30:56.092Z,4.20
2022-12-05T17:31:56.191Z,3.90
2022-12-05T17:32:56.267Z,4.30